Weather reports worldwide

Advertisment
Schmücke, Germany (10552): temperature & dewpoint: 10.09.2019 05:00:00 - 16.09.2019 05:00:00 (CEST)Schmücke, Germany (10552): temperature 5cm & temperature -5cm: 10.09.2019 05:00:00 - 16.09.2019 05:00:00 (CEST)Schmücke, Germany (10552): temperature -20cm & temperature -100cm: 10.09.2019 05:00:00 - 16.09.2019 05:00:00 (CEST)Schmücke, Germany (10552): wind speed & gusts: 10.09.2019 05:00:00 - 16.09.2019 05:00:00 (CEST)Schmücke, Germany (10552): wind direction: 10.09.2019 05:00:00 - 16.09.2019 05:00:00 (CEST)Schmücke, Germany (10552): visibility: 10.09.2019 05:00:00 - 16.09.2019 05:00:00 (CEST)Schmücke, Germany (10552): sunshine duration: 10.09.2019 05:00:00 - 16.09.2019 05:00:00 (CEST)Schmücke, Germany (10552): precipitation: 10.09.2019 05:00:00 - 16.09.2019 05:00:00 (CEST)
Date & Time tt [°C] td [°C] tt 5cm [°C] tt -5cm [°C] tt -20cm [°C] tt -100cm [°C] ff [km/h] ff [kn] fx [km/h] fx [kn] dd vv [km] sd [min] rr [mm]
16.09.2019 05:00:00 10,8 5,8 9,2 10,7 13,9 14,2 3 2 14 8 W 40 0 0,0
16.09.2019 04:00:00 11,3 3,3 9,4 10,8 14,2 14,2 10 5 17 9 WSW 46 0 0,0
16.09.2019 03:00:00 12,0 2,3 9,6 11,0 14,5 14,2 11 6 21 12 WSW 47 0 0,0
16.09.2019 02:00:00 12,6 1,0 10,3 11,4 14,8 14,2 10 6 21 11 WNW 57 0 0,0
16.09.2019 01:00:00 12,7 0,9 10,8 11,9 15,2 14,2 9 5 21 11 WNW 70 0 0,0
16.09.2019 00:00:00 13,3 2,2 11,0 12,5 15,6 14,2 14 8 26 14 W 62 0 0,0
15.09.2019 23:00:00 13,9 2,3 12,1 13,3 15,9 14,2 16 8 27 15 W 63 0 0,0
15.09.2019 22:00:00 14,2 4,5 11,5 14,2 16,3 14,2 16 9 29 16 W 75 0 0,0
15.09.2019 21:00:00 15,0 4,7 12,9 15,3 16,6 14,2 20 11 31 17 WSW 68 0 0,0
15.09.2019 20:00:00 15,8 4,9 13,8 16,9 16,7 14,2 19 10 29 16 WSW 67 24 0,0
15.09.2019 19:00:00 17,4 3,9 15,9 18,7 16,7 14,2 13 7 36 19 WSW 67 28 0,0
15.09.2019 18:00:00 18,9 2,8 18,4 20,5 16,4 14,2 19 11 42 23 WSW 75 57 0,0
15.09.2019 17:00:00 20,3 5,4 21,5 21,7 15,8 14,2 17 9 40 22 WSW 72 60 0,0
15.09.2019 16:00:00 20,2 8,0 22,9 22,2 15,2 14,2 22 12 39 21 SW 53 60 0,0
15.09.2019 15:00:00 19,3 8,4 22,6 21,6 14,4 14,2 18 10 43 23 SW 55 60 0,0
15.09.2019 14:00:00 18,5 7,2 21,5 20,6 13,6 14,2 22 12 39 21 SW 66 60 0,0
15.09.2019 13:00:00 17,4 8,5 20,7 18,5 13,0 14,2 21 11 44 24 SW 64 60 0,0
15.09.2019 12:00:00 16,1 9,3 19,0 16,0 12,5 14,2 27 14 43 23 SW 41 60 0,0
15.09.2019 11:00:00 15,0 9,7 17,7 13,2 12,2 14,2 22 12 36 19 SW 45 60 0,0
15.09.2019 10:00:00 13,4 9,4 15,3 11,0 12,2 14,2 18 10 43 23 SW 38 60 0,0
15.09.2019 09:00:00 11,6 8,9 11,3 10,0 12,3 14,2 32 17 43 23 SW 43 60 0,0
15.09.2019 08:00:00 10,7 8,8 9,5 9,6 12,4 14,2 20 11 27 14 WSW 24 45 0,0
15.09.2019 07:00:00 10,3 8,7 8,7 9,5 12,6 14,2 16 9 34 19 WSW 21 0 0,0
15.09.2019 06:00:00 10,5 8,6 9,0 9,7 12,8 14,2 19 11 30 16 WSW 28 0 0,0
15.09.2019 05:00:00 10,8 8,4 9,2 9,8 13,1 14,2 20 11 34 18 SW 35 0 0,0
15.09.2019 04:00:00 10,5 7,9 9,0 9,9 13,3 14,3 23 12 32 18 SW 41 0 0,0
15.09.2019 03:00:00 10,5 7,6 9,3 10,1 13,6 14,3 19 11 28 15 SW 38 0 0,0
15.09.2019 02:00:00 10,7 7,4 8,6 10,4 13,9 14,3 19 10 26 14 SW 43 0 0,0
15.09.2019 01:00:00 10,7 7,1 8,4 10,8 14,3 14,3 10 5 20 11 SW 42 0 0,0
15.09.2019 00:00:00 10,8 6,9 8,5 11,3 14,7 14,3 11 6 19 11 SW 48 0 0,0
14.09.2019 23:00:00 10,0 6,6 7,9 11,9 15,0 14,3 8 5 16 8 SE 35 0 0,0
14.09.2019 22:00:00 9,7 6,4 8,0 12,8 15,4 14,3 14 7 18 10 E 38 0 0,0
14.09.2019 21:00:00 10,3 6,5 8,9 13,9 15,7 14,3 13 7 19 10 NE 51 0 0,0
14.09.2019 20:00:00 11,2 6,6 9,9 15,3 15,9 14,3 11 6 19 10 NE 46 11 0,0
14.09.2019 19:00:00 12,9 7,0 12,2 17,3 15,8 14,3 10 5 18 10 NNE 50 39 0,0
14.09.2019 18:00:00 14,3 6,8 14,8 19,1 15,5 14,3 8 4 20 11 NE 42 60 0,0
14.09.2019 17:00:00 15,2 6,8 17,6 20,3 15,0 14,3 10 5 21 11 NE 50 60 0,0
14.09.2019 16:00:00 15,6 6,8 19,5 20,8 14,3 14,3 9 5 21 12 NE 51 55 0,0
14.09.2019 15:00:00 15,6 6,6 20,2 20,8 13,5 14,3 6 3 18 10 E 60 60 0,0
14.09.2019 14:00:00 14,5 6,5 18,6 19,7 12,6 14,3 7 4 18 10 NE 42 56 0,0
14.09.2019 13:00:00 14,3 6,0 18,0 17,7 12,0 14,3 7 4 18 10 S 53 59 0,0
14.09.2019 12:00:00 12,2 6,3 15,1 13,4 11,6 14,3 10 5 19 10 E 45 35 0,0
14.09.2019 11:00:00 10,9 5,3 14,1 11,0 11,4 14,3 10 5 19 10 NE 44 46 0,0
14.09.2019 10:00:00 9,7 4,8 11,8 8,8 11,5 14,3 15 8 23 12 ENE 36 60 0,0
14.09.2019 09:00:00 7,8 4,5 8,0 7,9 11,8 14,4 15 8 24 13 ENE 49 60 0,0
14.09.2019 08:00:00 6,4 4,0 5,7 7,8 12,1 14,4 16 9 24 13 NE 37 39 0,0
14.09.2019 07:00:00 6,0 3,8 4,9 8,0 12,4 14,4 16 9 26 14 NE 40 0 0,0
14.09.2019 06:00:00 6,3 4,2 5,2 8,5 12,7 14,4 16 8 25 14 NE 38 0 0,0
14.09.2019 05:00:00 6,8 4,4 5,9 9,0 13,0 14,4 18 10 26 14 NE 37 0 0,0
14.09.2019 04:00:00 7,2 4,7 6,3 9,6 13,3 14,4 16 8 27 15 NE 38 0 0,0
14.09.2019 03:00:00 8,0 6,1 7,0 10,3 13,6 14,4 15 8 30 16 NE 36 0 0,0
14.09.2019 02:00:00 8,8 6,9 7,9 11,1 13,8 14,4 13 7 31 17 NNE 36 0 0,0
14.09.2019 01:00:00 10,1 7,9 9,5 12,1 14,0 14,4 17 9 30 16 NE 42 0 0,0
14.09.2019 00:00:00 10,9 9,1 10,8 12,5 14,2 14,4 13 7 26 14 NNE 35 0 0,0
13.09.2019 23:00:00 11,4 9,4 11,1 13,0 14,3 14,4 12 7 24 13 NNE 32 0 0,0
13.09.2019 22:00:00 11,8 9,7 11,6 13,4 14,5 14,4 13 7 25 14 N 36 0 0,0
13.09.2019 21:00:00 12,1 10,1 12,0 14,0 14,6 14,4 15 8 25 13 N 34 0 0,0
13.09.2019 20:00:00 12,4 10,4 12,2 14,7 14,6 14,4 9 5 22 12 NNE 36 0 0,0
13.09.2019 19:00:00 13,0 11,0 13,0 15,7 14,5 14,4 8 4 17 9 N 30 0 0,0
13.09.2019 18:00:00 14,1 11,3 14,0 17,1 14,2 14,4 9 5 18 10 N 36 12 0,0
13.09.2019 17:00:00 15,9 12,7 17,1 17,6 13,8 14,5 9 5 23 12 WSW 35 53 0,0
13.09.2019 16:00:00 14,1 12,4 14,5 16,1 13,5 14,5 14 8 23 12 WSW 11 8 0,0
13.09.2019 15:00:00 13,3 12,4 14,3 14,6 13,3 14,5 10 5 21 11 WSW 0,2 0 0,1
13.09.2019 14:00:00 13,2 12,2 13,9 14,3 13,2 14,5 13 7 27 14 WSW 0,2 0 0,0
13.09.2019 13:00:00 12,5 11,6 13,1 13,6 13,1 14,5 15 8 27 14 SW 0,1 0 0,0
13.09.2019 12:00:00 12,4 11,5 12,9 13,2 13,0 14,5 15 8 26 14 WSW 0,1 0 0,4
13.09.2019 11:00:00 12,1 11,2 12,5 12,9 12,9 14,5 14 8 28 15 WSW 0,1 0 0,0
13.09.2019 10:00:00 12,0 11,1 12,5 12,4 12,9 14,5 15 8 37 20 WSW 0,1 0 0,0
13.09.2019 09:00:00 11,5 10,6 11,8 12,0 12,9 14,5 17 9 32 17 WSW 0,1 0 0,0
13.09.2019 08:00:00 11,3 10,4 11,4 11,8 12,9 14,5 22 12 37 20 SW 0,1 0 0,0
13.09.2019 07:00:00 11,3 10,3 11,3 11,7 13,0 14,5 24 13 35 19 WSW 0,1 0 0,0
13.09.2019 06:00:00 11,3 10,3 11,2 11,5 13,1 14,5 20 11 28 15 WSW 0,1 0 0,0
13.09.2019 05:00:00 11,1 10,1 10,8 11,3 13,2 14,5 16 9 26 14 WSW 0,2 0 0,0
13.09.2019 04:00:00 11,4 10,3 10,4 11,8 13,3 14,5 16 9 24 13 WSW 1,8 0 0,0
13.09.2019 03:00:00 11,9 10,8 11,5 12,2 13,4 14,5 16 8 30 16 WSW 0,8 0 0,0
13.09.2019 02:00:00 12,5 11,2 12,2 12,4 13,4 14,6 15 8 29 16 WSW 13 0 0,0
13.09.2019 01:00:00 12,4 11,1 11,9 12,4 13,5 14,6 21 11 30 16 WSW 13 0 0,0
13.09.2019 00:00:00 12,8 11,3 12,6 12,5 13,6 14,6 19 11 36 19 WSW 26 0 0,0
12.09.2019 23:00:00 12,7 11,2 12,5 12,3 13,7 14,6 23 12 35 19 WSW 32 0 0,0
12.09.2019 22:00:00 12,5 10,7 11,5 12,3 13,9 14,6 25 13 37 20 WSW 44 0 0,0
12.09.2019 21:00:00 12,7 10,4 11,5 12,8 14,0 14,6 22 12 34 18 WSW 57 0 0,0
12.09.2019 20:00:00 13,2 10,2 12,1 13,5 14,0 14,6 21 12 33 18 WSW 65 27 0,0
12.09.2019 19:00:00 14,0 10,5 13,1 14,7 13,9 14,6 17 9 30 16 WSW 69 22 0,0
12.09.2019 18:00:00 14,2 10,8 14,4 15,4 13,7 14,6 14 8 34 19 WSW 74 5 0,0
12.09.2019 17:00:00 14,5 11,0 15,2 16,0 13,4 14,6 16 8 32 18 WSW 65 12 0,0
12.09.2019 16:00:00 14,8 11,3 16,4 15,6 13,1 14,6 17 9 34 19 SW 74 14 0,0
12.09.2019 15:00:00 13,3 11,2 13,8 14,6 12,9 14,6 16 9 31 17 SSW 39 4 0,0
12.09.2019 14:00:00 12,3 11,1 13,1 13,0 12,8 14,7 18 10 31 17 SW 18 0 0,0
12.09.2019 13:00:00 11,2 10,2 11,7 12,5 12,7 14,7 14 8 22 12 SSW 0,1 0 0,0
12.09.2019 12:00:00 10,5 9,5 10,9 12,2 12,7 14,7 13 7 24 13 SSW 0,1 0 0,0
12.09.2019 11:00:00 10,2 9,2 10,7 11,8 12,7 14,7 10 5 17 9 SW 0,1 0 0,0
12.09.2019 10:00:00 9,8 8,8 10,2 11,5 12,7 14,7 11 6 21 11 SW 0,1 0 0,1
12.09.2019 09:00:00 9,5 8,5 9,8 11,2 12,7 14,7 14 7 19 10 SW 0,1 0 0,7
12.09.2019 08:00:00 9,3 8,3 9,5 11,0 12,8 14,7 13 7 21 12 SW 0,1 0 1,0
12.09.2019 07:00:00 9,2 8,2 9,3 11,0 12,9 14,7 18 10 26 14 SW 0,1 0 0,4
12.09.2019 06:00:00 9,2 8,2 9,3 11,0 13,0 14,7 20 11 30 16 WSW 0,1 0 0,4
12.09.2019 05:00:00 9,1 8,1 9,3 11,1 13,2 14,7 18 10 35 19 WSW 0,1 0 0,0
12.09.2019 04:00:00 9,2 8,2 9,3 11,2 13,3 14,8 22 12 33 18 WSW 0,2 0 0,1
12.09.2019 03:00:00 9,1 8,1 9,3 11,3 13,5 14,8 19 10 38 20 WSW 0,2 0 0,2
12.09.2019 02:00:00 9,2 8,2 9,3 11,5 13,7 14,8 18 10 44 24 WSW 0,2 0 0,0
12.09.2019 01:00:00 9,7 7,6 9,6 11,6 13,9 14,8 29 15 47 26 WSW 34 0 0,0
12.09.2019 00:00:00 10,9 5,6 10,5 11,8 14,1 14,8 24 13 52 28 WSW 50 0 0,0
11.09.2019 23:00:00 11,6 5,0 11,2 12,1 14,4 14,8 28 15 48 26 SW 51 0 0,0
11.09.2019 22:00:00 11,9 4,3 11,3 12,6 14,6 14,8 27 14 46 25 SW 54 0 0,0
11.09.2019 21:00:00 11,9 3,8 11,3 13,2 14,9 14,8 15 8 32 17 WSW 66 0 0,0
11.09.2019 20:00:00 12,6 3,7 12,0 14,3 15,0 14,9 19 10 32 17 WSW 59 0 0,0
11.09.2019 19:00:00 13,3 3,9 12,2 15,6 15,0 14,9 16 9 39 21 WSW 66 15 0,0
11.09.2019 18:00:00 14,4 3,9 13,7 17,6 14,8 14,9 23 12 44 24 SW 64 42 0,0
11.09.2019 17:00:00 14,8 3,7 14,9 18,9 14,4 14,9 23 12 43 23 SW 52 43 0,0
11.09.2019 16:00:00 15,8 3,2 18,2 19,8 13,7 14,9 24 13 44 24 SW 53 60 0,0
11.09.2019 15:00:00 15,4 2,4 18,1 19,5 13,0 14,9 24 13 49 27 SW 72 60 0,0
11.09.2019 14:00:00 14,6 3,0 17,9 18,5 12,2 14,9 23 13 41 22 SW 56 60 0,0
11.09.2019 13:00:00 14,2 4,0 17,5 16,6 11,5 14,9 17 9 40 21 SW 60 56 0,0
11.09.2019 12:00:00 13,4 4,9 16,2 13,9 10,9 15,0 20 11 37 20 SW 58 60 0,0
11.09.2019 11:00:00 12,4 4,2 14,7 10,8 10,7 15,0 20 11 33 18 SW 51 60 0,0
11.09.2019 10:00:00 11,7 4,1 14,2 8,3 10,7 15,0 11 6 18 10 SW 58 60 0,0
11.09.2019 09:00:00 9,4 3,4 9,7 7,1 10,9 15,0 6 4 11 6 SW 47 60 0,0
11.09.2019 08:00:00 7,5 3,4 5,0 6,7 11,1 15,0 8 4 10 5 SW 44 46 0,0
11.09.2019 07:00:00 6,7 3,1 4,2 6,8 11,4 15,0 6 3 9 5 SW 44 0 0,0
11.09.2019 06:00:00 7,4 3,2 4,5 7,1 11,6 15,0 8 5 11 6 W 58 0 0,0
11.09.2019 05:00:00 6,7 3,1 4,7 7,4 11,9 15,0 6 3 7 4 WSW 48 0 0,0
11.09.2019 04:00:00 7,2 3,1 4,8 7,8 12,2 15,1 6 3 10 6 W 54 0 0,0
11.09.2019 03:00:00 7,9 3,0 4,9 8,1 12,5 15,1 10 5 16 9 W 48 0 0,0
11.09.2019 02:00:00 7,9 3,2 5,4 8,5 12,9 15,1 13 7 19 10 W 59 0 0,0
11.09.2019 01:00:00 7,7 3,9 5,6 9,0 13,2 15,1 11 6 14 8 WSW 48 0 0,0
11.09.2019 00:00:00 8,0 3,4 6,0 9,6 13,6 15,1 11 6 17 9 WSW 60 0 0,0
10.09.2019 23:00:00 7,7 3,9 5,6 10,3 13,9 15,1 9 5 14 8 WSW 43 0 0,0
10.09.2019 22:00:00 8,0 4,0 5,9 11,2 14,3 15,2 8 5 14 8 WSW 44 0 0,0
10.09.2019 21:00:00 8,8 4,5 6,9 12,2 14,5 15,2 9 5 15 8 WSW 45 0 0,0
10.09.2019 20:00:00 9,5 4,5 7,4 13,5 14,7 15,2 10 5 19 10 WSW 49 19 0,0
10.09.2019 19:00:00 11,5 4,7 11,2 15,0 14,7 15,2 11 6 24 13 SW 43 46 0,0
10.09.2019 18:00:00 11,3 5,0 11,9 15,5 14,7 15,2 10 5 22 12 WSW 47 1 0,0
10.09.2019 17:00:00 11,5 5,0 13,1 16,2 14,5 15,2 9 5 20 11 WSW 41 4 0,0
10.09.2019 16:00:00 10,9 5,9 12,1 17,3 14,0 15,2 8 4 23 12 WSW 32 2 0,0
10.09.2019 15:00:00 12,0 4,8 14,3 20,0 13,2 15,3 13 7 29 15 SW 35 41 0,0
10.09.2019 14:00:00 12,7 5,5 17,7 18,6 12,4 15,3 15 8 34 19 SSW 40 49 0,0
10.09.2019 13:00:00 11,3 4,8 14,0 17,0 11,7 15,3 16 9 31 17 SSW 41 53 0,0
10.09.2019 12:00:00 10,3 6,1 12,3 13,5 11,2 15,3 10 5 21 12 SW 29 40 0,0
10.09.2019 11:00:00 9,3 6,3 10,9 11,7 10,8 15,3 13 7 20 11 SW 13 58 0,0
10.09.2019 10:00:00 8,4 6,8 10,0 8,5 10,9 15,3 11 6 16 9 SW 4,9 60 0,0
10.09.2019 09:00:00 7,3 5,9 7,8 7,2 11,0 15,3 8 4 14 8 W 7 60 0,0
10.09.2019 08:00:00 5,8 4,7 4,9 6,9 11,2 15,3 8 4 14 7 WSW 2,5 14 0,0
10.09.2019 07:00:00 5,5 4,3 4,0 7,0 11,5 15,4 7 4 11 6 WNW 3,2 0 0,0
10.09.2019 06:00:00 5,5 4,3 3,7 7,2 11,8 15,4 9 5 16 8 WNW 3,6 0 0,0
10.09.2019 05:00:00 5,7 4,5 4,0 7,6 12,1 15,4 11 6 16 9 W 4,1 0 0,0

tt = temperature
td = dewpoint
tt 5cm = temperature 5cm
tt -5cm = temperature -5cm
tt -20cm = temperature -20cm
tt -100cm = temperature -100cm
ff = wind speed
fx = gusts
dd = wind direction
vv = visibility
sd = sunshine duration
rr = precipitation

Next stations